createdAt,value
2023-02-07T00:01:39.250Z,96.56
2023-02-07T00:04:26.219Z,96.43
2023-02-07T00:06:59.351Z,96.23
2023-02-07T00:09:46.194Z,96.13
2023-02-07T00:12:19.357Z,96.07
2023-02-07T00:15:07.269Z,96.30
2023-02-07T00:17:40.314Z,96.18
2023-02-07T00:20:28.232Z,96.29
2023-02-07T00:23:02.470Z,95.89
2023-02-07T00:25:52.219Z,95.78
2023-02-07T00:28:25.447Z,95.72
2023-02-07T00:31:20.277Z,95.85
2023-02-07T00:34:02.229Z,95.48
2023-02-07T00:36:56.246Z,95.32
2023-02-07T00:39:50.276Z,95.38
2023-02-07T00:42:44.195Z,95.50
2023-02-07T00:45:31.272Z,95.75
2023-02-07T00:48:04.306Z,95.69
2023-02-07T00:50:58.223Z,95.69
2023-02-07T00:53:52.263Z,95.78
2023-02-07T00:56:40.237Z,95.81
2023-02-07T00:59:20.226Z,95.83
2023-02-07T01:02:07.229Z,96.08
2023-02-07T01:04:47.274Z,95.87
2023-02-07T01:07:34.239Z,95.92
2023-02-07T01:10:07.337Z,95.94
2023-02-07T01:12:54.210Z,96.05
2023-02-07T01:15:27.362Z,95.90
2023-02-07T01:18:15.235Z,95.60
2023-02-07T01:20:48.370Z,95.33
2023-02-07T01:23:35.228Z,95.71
2023-02-07T01:26:12.333Z,95.75
2023-02-07T01:29:01.259Z,95.54
2023-02-07T01:31:41.326Z,95.13
2023-02-07T01:34:35.263Z,95.17
2023-02-07T01:37:22.255Z,94.87
2023-02-07T01:39:55.431Z,94.82
2023-02-07T01:42:42.250Z,94.58
2023-02-07T01:45:36.746Z,94.54
2023-02-07T01:48:30.250Z,94.93
2023-02-07T01:51:14.288Z,94.49
2023-02-07T01:54:11.285Z,94.54
2023-02-07T01:57:05.994Z,94.06
2023-02-07T01:59:44.169Z,94.37
2023-02-07T02:02:34.311Z,95.01
2023-02-07T02:05:08.365Z,95.43
2023-02-07T02:07:55.272Z,95.31
2023-02-07T02:10:34.374Z,95.39
2023-02-07T02:14:02.214Z,95.77
2023-02-07T02:17:01.288Z,95.88
2023-02-07T02:20:04.261Z,96.08
2023-02-07T02:23:12.244Z,95.83
2023-02-07T02:26:12.353Z,95.85
2023-02-07T02:29:20.297Z,96.18
2023-02-07T02:32:51.234Z,96.30
2023-02-07T02:36:03.278Z,96.49
2023-02-07T02:39:13.240Z,96.04
2023-02-07T02:42:22.264Z,96.23
2023-02-07T02:45:45.288Z,96.54
2023-02-07T02:48:41.268Z,96.31
2023-02-07T02:51:35.239Z,96.54
2023-02-07T02:54:51.263Z,96.10
2023-02-07T02:58:10.282Z,96.37
2023-02-07T03:01:48.315Z,96.08
2023-02-07T03:04:38.260Z,95.75
2023-02-07T03:07:41.381Z,96.13
2023-02-07T03:10:43.258Z,96.51
2023-02-07T03:13:37.266Z,96.51
2023-02-07T03:16:41.280Z,97.01
2023-02-07T03:19:38.311Z,96.99
2023-02-07T03:22:36.256Z,96.95
2023-02-07T03:25:25.256Z,96.60
2023-02-07T03:28:01.471Z,96.58
2023-02-07T03:30:50.328Z,96.59
2023-02-07T03:33:25.388Z,96.62
2023-02-07T03:36:26.315Z,96.84
2023-02-07T03:39:06.277Z,96.82
2023-02-07T03:42:09.276Z,96.77
2023-02-07T03:45:08.404Z,96.58
2023-02-07T03:48:02.321Z,96.12
2023-02-07T03:50:58.288Z,96.57
2023-02-07T03:53:45.299Z,96.68
2023-02-07T03:56:18.360Z,96.42
2023-02-07T03:59:05.389Z,96.41
2023-02-07T04:01:48.371Z,96.58
2023-02-07T04:04:42.290Z,96.71
2023-02-07T04:07:29.271Z,96.48
2023-02-07T04:10:03.422Z,96.55
2023-02-07T04:12:50.307Z,96.50
2023-02-07T04:15:23.463Z,96.26
2023-02-07T04:18:10.324Z,96.31
2023-02-07T04:20:43.423Z,96.27
2023-02-07T04:23:30.317Z,96.77
2023-02-07T04:26:11.289Z,96.74
2023-02-07T04:29:05.282Z,96.41
2023-02-07T04:31:59.365Z,96.42
2023-02-07T04:34:46.267Z,96.64
2023-02-07T04:37:19.476Z,96.25
2023-02-07T04:40:06.300Z,96.25
2023-02-07T04:42:39.402Z,96.50
2023-02-07T04:45:26.414Z,96.12
2023-02-07T04:47:59.431Z,96.62
2023-02-07T04:50:53.296Z,96.62
2023-02-07T04:53:40.280Z,96.82
2023-02-07T04:56:20.274Z,96.84
2023-02-07T04:59:07.341Z,96.69
2023-02-07T05:01:47.293Z,97.00
2023-02-07T05:04:34.340Z,96.83
2023-02-07T05:07:07.461Z,96.70
2023-02-07T05:09:54.297Z,96.65
2023-02-07T05:12:27.426Z,96.80
2023-02-07T05:15:17.319Z,96.34
2023-02-07T05:17:52.458Z,96.01
2023-02-07T05:20:39.290Z,95.94
2023-02-07T05:23:12.474Z,96.27
2023-02-07T05:25:59.354Z,96.37
2023-02-07T05:28:32.392Z,96.36
2023-02-07T05:31:19.389Z,96.39
2023-02-07T05:33:52.387Z,96.42
2023-02-07T05:36:39.341Z,96.26
2023-02-07T05:39:12.481Z,96.68
2023-02-07T05:41:59.298Z,96.67
2023-02-07T05:44:39.344Z,96.53
2023-02-07T05:47:26.323Z,96.29
2023-02-07T05:49:59.420Z,96.48
2023-02-07T05:52:46.293Z,96.60
2023-02-07T05:55:20.442Z,96.61
2023-02-07T05:58:07.336Z,97.16
2023-02-07T06:00:40.585Z,96.92
2023-02-07T06:03:27.333Z,97.37
2023-02-07T06:06:07.337Z,96.99
2023-02-07T06:09:01.317Z,96.63
2023-02-07T06:11:48.330Z,96.72
2023-02-07T06:14:22.444Z,96.78
2023-02-07T06:17:09.346Z,96.92
2023-02-07T06:19:42.501Z,96.71
2023-02-07T06:22:29.336Z,96.91
2023-02-07T06:25:02.444Z,96.40
2023-02-07T06:27:49.302Z,96.72
2023-02-07T06:30:29.327Z,96.83
2023-02-07T06:33:23.296Z,97.21
2023-02-07T06:36:10.309Z,97.04
2023-02-07T06:38:50.296Z,97.19
2023-02-07T06:41:44.320Z,96.76
2023-02-07T06:44:31.380Z,96.89
2023-02-07T06:47:11.308Z,96.67
2023-02-07T06:50:05.332Z,96.83
2023-02-07T06:52:59.295Z,96.30
2023-02-07T06:55:53.322Z,96.70
2023-02-07T06:58:47.316Z,96.73
2023-02-07T07:01:34.371Z,96.85
2023-02-07T07:04:14.354Z,96.61
2023-02-07T07:07:01.324Z,96.74
2023-02-07T07:09:41.349Z,96.64
2023-02-07T07:12:35.301Z,96.66
2023-02-07T07:15:22.359Z,96.51
2023-02-07T07:17:55.434Z,96.58
2023-02-07T07:20:42.346Z,96.56
2023-02-07T07:23:15.439Z,96.45
2023-02-07T07:26:02.345Z,96.39
2023-02-07T07:28:42.390Z,95.92
2023-02-07T07:31:36.377Z,96.41
2023-02-07T07:34:23.346Z,95.96
2023-02-07T07:36:56.903Z,96.44
2023-02-07T07:39:43.410Z,96.06
2023-02-07T07:42:16.442Z,96.00
2023-02-07T07:45:03.320Z,96.22
2023-02-07T07:47:43.379Z,96.36
2023-02-07T07:50:37.728Z,96.52
2023-02-07T07:53:31.363Z,96.27
2023-02-07T07:56:18.348Z,96.49
2023-02-07T07:58:51.413Z,96.48
2023-02-07T08:01:38.408Z,96.51
2023-02-07T08:04:11.526Z,96.12
2023-02-07T08:06:58.389Z,96.58
2023-02-07T08:09:38.327Z,96.63
2023-02-07T08:12:25.369Z,96.90
2023-02-07T08:15:05.364Z,97.00
2023-02-07T08:17:59.334Z,96.80
2023-02-07T08:20:46.338Z,96.64
2023-02-07T08:23:26.342Z,96.74
2023-02-07T08:26:20.497Z,96.63
2023-02-07T08:29:07.361Z,96.63
2023-02-07T08:31:47.387Z,96.92
2023-02-07T08:34:44.387Z,97.04
2023-02-07T08:37:31.346Z,97.38
2023-02-07T08:40:05.192Z,97.41
2023-02-07T08:42:52.391Z,97.32
2023-02-07T08:45:25.557Z,97.38
2023-02-07T08:48:12.346Z,97.70
2023-02-07T08:50:52.332Z,97.93
2023-02-07T08:53:46.407Z,97.89
2023-02-07T08:56:40.330Z,98.40
2023-02-07T08:59:27.350Z,98.16
2023-02-07T09:02:07.417Z,97.91
2023-02-07T09:05:02.410Z,98.48
2023-02-07T09:07:56.333Z,98.71
2023-02-07T09:10:44.866Z,98.45
2023-02-07T09:13:26.347Z,98.58
2023-02-07T09:16:20.344Z,99.00
2023-02-07T09:19:14.350Z,98.65
2023-02-07T09:22:01.348Z,98.78
2023-02-07T09:24:34.486Z,98.91
2023-02-07T09:27:21.352Z,98.78
2023-02-07T09:29:54.466Z,98.63
2023-02-07T09:32:41.353Z,98.32
2023-02-07T09:35:14.449Z,98.02
2023-02-07T09:38:02.368Z,98.19
2023-02-07T09:40:45.402Z,97.95
2023-02-07T09:44:08.553Z,97.96
2023-02-07T09:47:13.385Z,97.76
2023-02-07T09:50:13.379Z,97.76
2023-02-07T09:53:11.374Z,97.73
2023-02-07T09:56:15.356Z,97.77
2023-02-07T09:59:21.375Z,98.13
2023-02-07T10:02:20.367Z,98.19
2023-02-07T10:05:03.366Z,98.42
2023-02-07T10:08:02.350Z,98.40
2023-02-07T10:11:01.381Z,98.33
2023-02-07T10:13:41.365Z,98.33
2023-02-07T10:17:01.376Z,98.17
2023-02-07T10:19:53.367Z,98.76
2023-02-07T10:22:51.378Z,98.76
2023-02-07T10:25:52.372Z,98.71
2023-02-07T10:29:01.380Z,98.37
2023-02-07T10:31:53.409Z,98.14
2023-02-07T10:34:30.455Z,98.20
2023-02-07T10:37:33.371Z,97.95
2023-02-07T10:40:34.530Z,97.81
2023-02-07T10:43:36.371Z,97.38
2023-02-07T10:46:19.392Z,96.75
2023-02-07T10:49:13.379Z,97.29
2023-02-07T10:52:11.372Z,97.58
2023-02-07T10:55:08.414Z,97.69
2023-02-07T10:58:08.718Z,97.86
2023-02-07T11:00:47.476Z,97.91
2023-02-07T11:03:34.401Z,97.67
2023-02-07T11:06:16.376Z,97.61
2023-02-07T11:09:36.394Z,97.70
2023-02-07T11:12:32.403Z,97.60
2023-02-07T11:15:07.976Z,97.73
2023-02-07T11:17:56.459Z,97.83
2023-02-07T11:20:36.497Z,97.73
2023-02-07T11:23:24.400Z,97.64
2023-02-07T11:26:08.387Z,97.56
2023-02-07T11:29:07.982Z,97.05
2023-02-07T11:31:56.380Z,97.39
2023-02-07T11:34:38.569Z,97.44
2023-02-07T11:37:29.399Z,97.14
2023-02-07T11:40:34.403Z,97.47
2023-02-07T11:43:26.405Z,97.50
2023-02-07T11:46:06.534Z,97.60
2023-02-07T11:48:58.434Z,97.60
2023-02-07T11:51:32.693Z,97.58
2023-02-07T11:54:21.419Z,98.10
2023-02-07T11:57:26.396Z,97.49
2023-02-07T12:00:29.415Z,97.72
2023-02-07T12:03:33.394Z,97.90
2023-02-07T12:06:11.491Z,97.91
2023-02-07T12:08:59.436Z,97.93
2023-02-07T12:11:38.499Z,97.71
2023-02-07T12:14:46.416Z,97.61
2023-02-07T12:17:34.507Z,97.49
2023-02-07T12:20:31.423Z,97.04
2023-02-07T12:23:40.809Z,97.34
2023-02-07T12:26:31.417Z,97.89
2023-02-07T12:29:23.590Z,97.94
2023-02-07T12:32:48.574Z,97.99
2023-02-07T12:35:55.541Z,97.69
2023-02-07T12:39:12.453Z,98.16
2023-02-07T12:42:38.407Z,98.13
2023-02-07T12:45:35.441Z,98.10
2023-02-07T12:48:26.659Z,98.37
2023-02-07T12:51:59.417Z,98.43
2023-02-07T12:55:04.448Z,98.68
2023-02-07T12:57:44.540Z,98.58
2023-02-07T13:00:37.454Z,98.79
2023-02-07T13:03:53.420Z,99.31
2023-02-07T13:07:04.444Z,99.48
2023-02-07T13:09:49.392Z,99.51
2023-02-07T13:12:45.418Z,99.64
2023-02-07T13:15:36.806Z,99.91
2023-02-07T13:19:05.454Z,99.81
2023-02-07T13:22:13.532Z,100.00
2023-02-07T13:25:02.424Z,99.86
2023-02-07T13:27:36.533Z,100.00
2023-02-07T13:30:25.421Z,100.00
2023-02-07T13:33:07.418Z,100.00
2023-02-07T13:36:01.423Z,100.00
2023-02-07T13:39:05.500Z,100.00
2023-02-07T13:41:55.438Z,100.00
2023-02-07T13:44:52.440Z,100.00
2023-02-07T13:48:00.446Z,100.00
2023-02-07T13:51:29.582Z,100.00
2023-02-07T13:54:19.435Z,100.00
2023-02-07T13:57:32.456Z,100.00
2023-02-07T14:00:26.439Z,100.00
2023-02-07T14:03:23.489Z,100.00
2023-02-07T14:06:36.460Z,100.00
2023-02-07T14:09:30.437Z,100.00
2023-02-07T14:12:09.547Z,100.00
2023-02-07T14:15:03.016Z,100.00
2023-02-07T14:18:14.452Z,100.00
2023-02-07T14:21:16.439Z,100.00
2023-02-07T14:24:12.448Z,100.00
2023-02-07T14:26:46.267Z,100.00
2023-02-07T14:29:34.458Z,100.00
2023-02-07T14:32:25.551Z,100.00
2023-02-07T14:35:15.431Z,100.00
2023-02-07T14:38:01.529Z,100.00
2023-02-07T14:41:09.966Z,100.00
2023-02-07T14:44:09.643Z,100.00
2023-02-07T14:46:58.942Z,100.00
2023-02-07T14:49:54.465Z,100.00
2023-02-07T14:52:38.114Z,100.00
2023-02-07T14:55:33.475Z,100.00
2023-02-07T14:58:31.451Z,100.00
2023-02-07T15:01:27.471Z,100.00
2023-02-07T15:04:17.465Z,100.00
2023-02-07T15:06:52.636Z,100.00
2023-02-07T15:09:41.471Z,100.00
2023-02-07T15:12:26.587Z,100.00
2023-02-07T15:15:14.451Z,100.00
2023-02-07T15:17:55.482Z,100.00
2023-02-07T15:20:49.498Z,100.00
2023-02-07T15:23:45.462Z,100.00
2023-02-07T15:26:32.453Z,100.00
2023-02-07T15:29:13.569Z,100.00
2023-02-07T15:32:00.632Z,100.00
2023-02-07T15:34:39.564Z,100.00
2023-02-07T15:37:30.521Z,100.00
2023-02-07T15:40:04.556Z,100.00
2023-02-07T15:43:02.518Z,100.00
2023-02-07T15:45:38.849Z,100.00
2023-02-07T15:48:25.488Z,100.00
2023-02-07T15:51:01.653Z,100.00
2023-02-07T15:53:57.468Z,100.00
2023-02-07T15:56:31.752Z,100.00
2023-02-07T15:59:24.539Z,100.00
2023-02-07T16:02:07.465Z,100.00
2023-02-07T16:05:01.599Z,100.00
2023-02-07T16:07:54.498Z,100.00
2023-02-07T16:10:30.559Z,100.00
2023-02-07T16:13:23.483Z,100.00
2023-02-07T16:16:12.525Z,100.00
2023-02-07T16:19:17.480Z,100.00
2023-02-07T16:22:19.489Z,100.00
2023-02-07T16:25:15.489Z,100.00
2023-02-07T16:28:09.544Z,100.00
2023-02-07T16:30:56.474Z,100.00
2023-02-07T16:33:29.602Z,100.00
2023-02-07T16:36:21.484Z,100.00
2023-02-07T16:39:01.485Z,100.00
2023-02-07T16:41:52.499Z,100.00
2023-02-07T16:44:34.594Z,100.00
2023-02-07T16:47:22.494Z,100.00
2023-02-07T16:49:55.608Z,100.00
2023-02-07T16:52:42.474Z,100.00
2023-02-07T16:55:15.604Z,100.00
2023-02-07T16:58:04.472Z,100.00
2023-02-07T17:00:37.956Z,100.00
2023-02-07T17:03:24.491Z,100.00
2023-02-07T17:05:57.688Z,100.00
2023-02-07T17:08:44.463Z,100.00
2023-02-07T17:11:27.635Z,100.00
2023-02-07T17:14:14.520Z,100.00
2023-02-07T17:16:48.655Z,100.00
2023-02-07T17:19:35.530Z,100.00
2023-02-07T17:22:08.606Z,100.00
2023-02-07T17:24:55.551Z,100.00
2023-02-07T17:27:28.613Z,100.00
2023-02-07T17:30:44.543Z,100.00
2023-02-07T17:33:17.677Z,100.00
2023-02-07T17:36:04.463Z,100.00
2023-02-07T17:38:37.711Z,100.00
2023-02-07T17:41:25.515Z,100.00
2023-02-07T17:44:06.497Z,100.00
2023-02-07T17:47:00.505Z,100.00
2023-02-07T17:49:47.512Z,100.00
2023-02-07T17:52:27.508Z,100.00
2023-02-07T17:55:14.501Z,100.00
2023-02-07T17:57:48.621Z,100.00
2023-02-07T18:00:45.520Z,100.00
2023-02-07T18:03:20.349Z,100.00
2023-02-07T18:06:07.533Z,100.00
2023-02-07T18:08:40.676Z,100.00
2023-02-07T18:11:28.519Z,100.00
2023-02-07T18:14:02.911Z,100.00
2023-02-07T18:16:49.497Z,100.00
2023-02-07T18:19:24.620Z,100.00
2023-02-07T18:22:11.519Z,100.00
2023-02-07T18:24:44.648Z,100.00
2023-02-07T18:27:32.511Z,100.00
2023-02-07T18:30:12.518Z,100.00
2023-02-07T18:33:06.509Z,100.00
2023-02-07T18:35:53.517Z,100.00
2023-02-07T18:38:26.653Z,100.00
2023-02-07T18:41:16.558Z,100.00
2023-02-07T18:43:56.547Z,100.00
2023-02-07T18:46:50.514Z,100.00
2023-02-07T18:49:44.512Z,100.00
2023-02-07T18:52:38.534Z,100.00
2023-02-07T18:55:32.513Z,100.00
2023-02-07T18:58:19.541Z,100.00
2023-02-07T19:00:52.733Z,100.00
2023-02-07T19:03:39.543Z,100.00
2023-02-07T19:06:15.049Z,100.00
2023-02-07T19:09:01.521Z,100.00
2023-02-07T19:11:41.525Z,100.00
2023-02-07T19:14:42.525Z,100.00
2023-02-07T19:17:29.554Z,100.00
2023-02-07T19:20:02.631Z,100.00
2023-02-07T19:22:49.576Z,100.00
2023-02-07T19:25:22.697Z,100.00
2023-02-07T19:28:09.640Z,100.00
2023-02-07T19:30:53.659Z,100.00
2023-02-07T19:33:48.515Z,100.00
2023-02-07T19:36:42.556Z,100.00
2023-02-07T19:39:29.564Z,100.00
2023-02-07T19:42:02.705Z,100.00
2023-02-07T19:44:49.565Z,100.00
2023-02-07T19:47:22.616Z,100.00
2023-02-07T19:50:09.556Z,100.00
2023-02-07T19:52:42.628Z,100.00
2023-02-07T19:55:29.578Z,100.00
2023-02-07T19:58:02.638Z,100.00
2023-02-07T20:00:49.552Z,100.00
2023-02-07T20:03:29.588Z,100.00
2023-02-07T20:06:19.565Z,100.00
2023-02-07T20:08:52.795Z,100.00
2023-02-07T20:11:39.567Z,100.00
2023-02-07T20:14:13.212Z,100.00
2023-02-07T20:16:59.552Z,100.00
2023-02-07T20:19:32.683Z,100.00
2023-02-07T20:22:19.565Z,100.00
2023-02-07T20:24:59.610Z,100.00
2023-02-07T20:27:53.586Z,100.00
2023-02-07T20:30:41.877Z,100.00
2023-02-07T20:33:22.555Z,100.00
2023-02-07T20:36:16.588Z,100.00
2023-02-07T20:39:05.565Z,100.00
2023-02-07T20:41:41.496Z,100.00
2023-02-07T20:44:43.570Z,100.00
2023-02-07T20:47:30.574Z,100.00
2023-02-07T20:50:10.566Z,100.00
2023-02-07T20:53:04.576Z,100.00
2023-02-07T20:55:51.714Z,100.00
2023-02-07T20:58:24.743Z,100.00
2023-02-07T21:01:26.589Z,100.00
2023-02-07T21:04:02.696Z,100.00
2023-02-07T21:06:51.554Z,100.00
2023-02-07T21:09:25.656Z,100.00
2023-02-07T21:12:12.565Z,100.00
2023-02-07T21:14:54.582Z,100.00
2023-02-07T21:17:43.572Z,100.00
2023-02-07T21:20:16.686Z,100.00
2023-02-07T21:23:04.562Z,100.00
2023-02-07T21:25:45.565Z,100.00
2023-02-07T21:28:39.576Z,100.00
2023-02-07T21:31:36.131Z,100.00
2023-02-07T21:34:24.568Z,100.00
2023-02-07T21:36:57.669Z,100.00
2023-02-07T21:39:37.607Z,100.00
2023-02-07T21:42:17.699Z,100.00
2023-02-07T21:44:57.565Z,100.00
2023-02-07T21:47:37.579Z,100.00
2023-02-07T21:50:17.566Z,100.00
2023-02-07T21:53:11.582Z,100.00
2023-02-07T21:55:58.588Z,100.00
2023-02-07T21:58:32.055Z,100.00
2023-02-07T22:01:21.594Z,100.00
2023-02-07T22:03:56.667Z,100.00
2023-02-07T22:06:44.599Z,100.00
2023-02-07T22:09:20.745Z,100.00
2023-02-07T22:12:07.609Z,100.00
2023-02-07T22:14:40.701Z,100.00
2023-02-07T22:17:27.590Z,100.00
2023-02-07T22:20:07.607Z,100.00
2023-02-07T22:22:54.576Z,100.00
2023-02-07T22:25:34.608Z,100.00
2023-02-07T22:28:28.597Z,100.00
2023-02-07T22:31:25.690Z,100.00
2023-02-07T22:34:07.643Z,100.00
2023-02-07T22:36:52.628Z,100.00
2023-02-07T22:39:32.633Z,100.00
2023-02-07T22:42:05.761Z,100.00
2023-02-07T22:44:52.610Z,100.00
2023-02-07T22:47:25.699Z,100.00
2023-02-07T22:50:12.579Z,100.00
2023-02-07T22:52:45.719Z,100.00
2023-02-07T22:55:32.585Z,100.00
2023-02-07T22:58:05.693Z,100.00
2023-02-07T23:00:52.586Z,100.00
2023-02-07T23:03:25.773Z,100.00
2023-02-07T23:06:12.605Z,100.00
2023-02-07T23:08:45.718Z,100.00
2023-02-07T23:11:32.610Z,100.00
2023-02-07T23:14:05.723Z,100.00
2023-02-07T23:16:52.588Z,100.00
2023-02-07T23:19:32.622Z,100.00
2023-02-07T23:22:26.616Z,100.00
2023-02-07T23:25:15.606Z,100.00
2023-02-07T23:27:50.744Z,100.00
2023-02-07T23:30:37.848Z,100.00
2023-02-07T23:33:19.614Z,100.00
2023-02-07T23:36:14.877Z,100.00
2023-02-07T23:39:10.614Z,100.00
2023-02-07T23:42:04.603Z,100.00
2023-02-07T23:44:58.617Z,100.00
2023-02-07T23:47:52.613Z,100.00
2023-02-07T23:50:40.807Z,100.00
2023-02-07T23:53:14.713Z,100.00
2023-02-07T23:56:02.605Z,100.00
2023-02-07T23:58:35.752Z,100.00
